<?xml version="1.0" encoding="UTF-8" standalone="no" ?>
<gpx xmlns="http://www.topografix.com/GPX/1/1" xmlns:xsi="http://www.w3.org/2001/XMLSchema-instance" xsi:schemaLocation="http://www.topografix.com/GPX/1/1 http://www.topografix.com/GPX/1/1/gpx.xsd" version="1.1" creator="VisuGPX - https://www.visugpx.com">
  <metadata>
    <name>98 StPardouxIsaac-Vert</name>
    <desc><![CDATA[comment ...]]></desc>
  </metadata>
  <trk>
    <name><![CDATA[comment ...]]></name>
    <desc><![CDATA[comment ...]]></desc>
    <extensions>
      <line xmlns="http://www.topografix.com/GPX/gpx_style/0/2">
        <color>0000FF</color>
        <width>4</width>
      </line>
    </extensions>
    <trkseg>
      <trkpt lat="44.61191" lon="0.37151">
        <ele>-1</ele>
        <time>2015-11-11T13:00:49.000Z</time>
      </trkpt>
      <trkpt lat="44.61191" lon="0.37151">
        <ele>-1</ele>
        <time>2015-11-11T13:00:50.000Z</time>
      </trkpt>
      <trkpt lat="44.61193" lon="0.37154">
        <ele>73.6</ele>
        <time>2015-11-11T13:02:16.000Z</time>
      </trkpt>
      <trkpt lat="44.61197" lon="0.37159">
        <ele>1</ele>
        <time>2015-11-11T13:05:36.000Z</time>
      </trkpt>
      <trkpt lat="44.61197" lon="0.37164">
        <ele>1</ele>
        <time>2015-11-11T13:05:41.000Z</time>
      </trkpt>
      <trkpt lat="44.61201" lon="0.37168">
        <ele>1</ele>
        <time>2015-11-11T13:05:47.000Z</time>
      </trkpt>
      <trkpt lat="44.61219" lon="0.37176">
        <ele>4</ele>
        <time>2015-11-11T13:06:09.000Z</time>
      </trkpt>
      <trkpt lat="44.6122" lon="0.37182">
        <ele>4</ele>
        <time>2015-11-11T13:06:13.000Z</time>
      </trkpt>
      <trkpt lat="44.6125" lon="0.372">
        <ele>5</ele>
        <time>2015-11-11T13:06:44.000Z</time>
      </trkpt>
      <trkpt lat="44.61289" lon="0.37216">
        <ele>8</ele>
        <time>2015-11-11T13:07:16.000Z</time>
      </trkpt>
      <trkpt lat="44.61324" lon="0.37248">
        <ele>8</ele>
        <time>2015-11-11T13:07:46.000Z</time>
      </trkpt>
      <trkpt lat="44.61356" lon="0.37275">
        <ele>7</ele>
        <time>2015-11-11T13:08:16.000Z</time>
      </trkpt>
      <trkpt lat="44.61389" lon="0.37301">
        <ele>5</ele>
        <time>2015-11-11T13:08:46.000Z</time>
      </trkpt>
      <trkpt lat="44.61422" lon="0.37338">
        <ele>4</ele>
        <time>2015-11-11T13:09:20.000Z</time>
      </trkpt>
      <trkpt lat="44.61448" lon="0.37379">
        <ele>69.2</ele>
        <time>2015-11-11T13:09:53.000Z</time>
      </trkpt>
      <trkpt lat="44.61481" lon="0.37412">
        <ele>-4</ele>
        <time>2015-11-11T13:10:23.000Z</time>
      </trkpt>
      <trkpt lat="44.615" lon="0.37427">
        <ele>-7</ele>
        <time>2015-11-11T13:10:42.000Z</time>
      </trkpt>
      <trkpt lat="44.61504" lon="0.37439">
        <ele>-8</ele>
        <time>2015-11-11T13:10:51.000Z</time>
      </trkpt>
      <trkpt lat="44.61534" lon="0.37459">
        <ele>-10</ele>
        <time>2015-11-11T13:11:16.000Z</time>
      </trkpt>
      <trkpt lat="44.61535" lon="0.37467">
        <ele>-10</ele>
        <time>2015-11-11T13:11:20.000Z</time>
      </trkpt>
      <trkpt lat="44.61564" lon="0.37504">
        <ele>-10</ele>
        <time>2015-11-11T13:11:51.000Z</time>
      </trkpt>
      <trkpt lat="44.61569" lon="0.3751">
        <ele>-10.999999</ele>
        <time>2015-11-11T13:11:56.000Z</time>
      </trkpt>
      <trkpt lat="44.61577" lon="0.37514">
        <ele>-10.999999</ele>
        <time>2015-11-11T13:11:59.000Z</time>
      </trkpt>
      <trkpt lat="44.61583" lon="0.37518">
        <ele>-10.999999</ele>
        <time>2015-11-11T13:12:03.000Z</time>
      </trkpt>
      <trkpt lat="44.61597" lon="0.3753">
        <ele>-12</ele>
        <time>2015-11-11T13:12:17.000Z</time>
      </trkpt>
      <trkpt lat="44.61614" lon="0.37512">
        <ele>-14</ele>
        <time>2015-11-11T13:12:50.000Z</time>
      </trkpt>
      <trkpt lat="44.61614" lon="0.37504">
        <ele>-14</ele>
        <time>2015-11-11T13:12:56.000Z</time>
      </trkpt>
      <trkpt lat="44.61647" lon="0.3747">
        <ele>-12</ele>
        <time>2015-11-11T13:13:27.000Z</time>
      </trkpt>
      <trkpt lat="44.61676" lon="0.37436">
        <ele>-12</ele>
        <time>2015-11-11T13:13:58.000Z</time>
      </trkpt>
      <trkpt lat="44.61688" lon="0.37416">
        <ele>-12</ele>
        <time>2015-11-11T13:14:09.000Z</time>
      </trkpt>
      <trkpt lat="44.61694" lon="0.3738">
        <ele>-12.999999</ele>
        <time>2015-11-11T13:14:29.000Z</time>
      </trkpt>
      <trkpt lat="44.61714" lon="0.37347">
        <ele>-15</ele>
        <time>2015-11-11T13:14:57.000Z</time>
      </trkpt>
      <trkpt lat="44.61718" lon="0.37343">
        <ele>-16</ele>
        <time>2015-11-11T13:15:02.000Z</time>
      </trkpt>
      <trkpt lat="44.61719" lon="0.37337">
        <ele>-16</ele>
        <time>2015-11-11T13:15:06.000Z</time>
      </trkpt>
      <trkpt lat="44.61725" lon="0.37321">
        <ele>-18</ele>
        <time>2015-11-11T13:15:18.000Z</time>
      </trkpt>
      <trkpt lat="44.61754" lon="0.37288">
        <ele>-24</ele>
        <time>2015-11-11T13:15:53.000Z</time>
      </trkpt>
      <trkpt lat="44.6176" lon="0.37289">
        <ele>-25</ele>
        <time>2015-11-11T13:16:09.000Z</time>
      </trkpt>
      <trkpt lat="44.61792" lon="0.3731">
        <ele>-25.999998</ele>
        <time>2015-11-11T13:16:41.000Z</time>
      </trkpt>
      <trkpt lat="44.61847" lon="0.37306">
        <ele>-25.999998</ele>
        <time>2015-11-11T13:17:11.000Z</time>
      </trkpt>
      <trkpt lat="44.61888" lon="0.37286">
        <ele>-20</ele>
        <time>2015-11-11T13:17:37.000Z</time>
      </trkpt>
      <trkpt lat="44.61892" lon="0.37279">
        <ele>-20</ele>
        <time>2015-11-11T13:17:44.000Z</time>
      </trkpt>
      <trkpt lat="44.61891" lon="0.37271">
        <ele>-20</ele>
        <time>2015-11-11T13:17:47.000Z</time>
      </trkpt>
      <trkpt lat="44.61914" lon="0.3723">
        <ele>-20</ele>
        <time>2015-11-11T13:18:20.000Z</time>
      </trkpt>
      <trkpt lat="44.61938" lon="0.3718">
        <ele>-18</ele>
        <time>2015-11-11T13:18:54.000Z</time>
      </trkpt>
      <trkpt lat="44.61946" lon="0.37158">
        <ele>-17</ele>
        <time>2015-11-11T13:19:04.000Z</time>
      </trkpt>
      <trkpt lat="44.61958" lon="0.3715">
        <ele>-16</ele>
        <time>2015-11-11T13:19:19.000Z</time>
      </trkpt>
      <trkpt lat="44.61962" lon="0.37142">
        <ele>-15</ele>
        <time>2015-11-11T13:19:27.000Z</time>
      </trkpt>
      <trkpt lat="44.61982" lon="0.37133">
        <ele>-15</ele>
        <time>2015-11-11T13:19:38.000Z</time>
      </trkpt>
      <trkpt lat="44.61989" lon="0.37125">
        <ele>-14</ele>
        <time>2015-11-11T13:20:10.000Z</time>
      </trkpt>
      <trkpt lat="44.61996" lon="0.3712">
        <ele>-10.999999</ele>
        <time>2015-11-11T13:20:39.000Z</time>
      </trkpt>
      <trkpt lat="44.62001" lon="0.37121">
        <ele>-10.999999</ele>
        <time>2015-11-11T13:21:21.000Z</time>
      </trkpt>
      <trkpt lat="44.62035" lon="0.37106">
        <ele>-8</ele>
        <time>2015-11-11T13:21:51.000Z</time>
      </trkpt>
      <trkpt lat="44.62073" lon="0.37088">
        <ele>-7</ele>
        <time>2015-11-11T13:22:23.000Z</time>
      </trkpt>
      <trkpt lat="44.62107" lon="0.37069">
        <ele>-5</ele>
        <time>2015-11-11T13:22:56.000Z</time>
      </trkpt>
      <trkpt lat="44.62144" lon="0.37056">
        <ele>-3</ele>
        <time>2015-11-11T13:23:29.000Z</time>
      </trkpt>
      <trkpt lat="44.62179" lon="0.37047">
        <ele>-2</ele>
        <time>2015-11-11T13:24:01.000Z</time>
      </trkpt>
      <trkpt lat="44.62222" lon="0.37041">
        <ele>-1</ele>
        <time>2015-11-11T13:24:33.000Z</time>
      </trkpt>
      <trkpt lat="44.62271" lon="0.3703">
        <ele>2</ele>
        <time>2015-11-11T13:25:09.000Z</time>
      </trkpt>
      <trkpt lat="44.62312" lon="0.37019">
        <ele>4</ele>
        <time>2015-11-11T13:25:41.000Z</time>
      </trkpt>
      <trkpt lat="44.62348" lon="0.36999">
        <ele>5</ele>
        <time>2015-11-11T13:26:11.000Z</time>
      </trkpt>
      <trkpt lat="44.62382" lon="0.3698">
        <ele>7</ele>
        <time>2015-11-11T13:26:41.000Z</time>
      </trkpt>
      <trkpt lat="44.62422" lon="0.36958">
        <ele>9</ele>
        <time>2015-11-11T13:27:12.000Z</time>
      </trkpt>
      <trkpt lat="44.62452" lon="0.3694">
        <ele>10.999999</ele>
        <time>2015-11-11T13:27:42.000Z</time>
      </trkpt>
      <trkpt lat="44.62463" lon="0.36935">
        <ele>10.999999</ele>
        <time>2015-11-11T13:27:52.000Z</time>
      </trkpt>
      <trkpt lat="44.62482" lon="0.36904">
        <ele>12</ele>
        <time>2015-11-11T13:28:22.000Z</time>
      </trkpt>
      <trkpt lat="44.62486" lon="0.369">
        <ele>12</ele>
        <time>2015-11-11T13:28:24.000Z</time>
      </trkpt>
      <trkpt lat="44.62497" lon="0.36873">
        <ele>12.999999</ele>
        <time>2015-11-11T13:28:38.000Z</time>
      </trkpt>
      <trkpt lat="44.62503" lon="0.3687">
        <ele>12.999999</ele>
        <time>2015-11-11T13:28:43.000Z</time>
      </trkpt>
      <trkpt lat="44.62518" lon="0.36855">
        <ele>14</ele>
        <time>2015-11-11T13:29:04.000Z</time>
      </trkpt>
      <trkpt lat="44.62526" lon="0.36841">
        <ele>15</ele>
        <time>2015-11-11T13:29:13.000Z</time>
      </trkpt>
      <trkpt lat="44.62563" lon="0.36814">
        <ele>18</ele>
        <time>2015-11-11T13:29:47.000Z</time>
      </trkpt>
      <trkpt lat="44.62599" lon="0.36785">
        <ele>21</ele>
        <time>2015-11-11T13:30:23.000Z</time>
      </trkpt>
      <trkpt lat="44.62633" lon="0.36748">
        <ele>27</ele>
        <time>2015-11-11T13:30:53.000Z</time>
      </trkpt>
      <trkpt lat="44.62673" lon="0.36719">
        <ele>30</ele>
        <time>2015-11-11T13:31:26.000Z</time>
      </trkpt>
      <trkpt lat="44.62712" lon="0.36693">
        <ele>37</ele>
        <time>2015-11-11T13:31:58.000Z</time>
      </trkpt>
      <trkpt lat="44.62742" lon="0.36648">
        <ele>37</ele>
        <time>2015-11-11T13:32:31.000Z</time>
      </trkpt>
      <trkpt lat="44.62745" lon="0.36644">
        <ele>36</ele>
        <time>2015-11-11T13:32:35.000Z</time>
      </trkpt>
      <trkpt lat="44.6278" lon="0.36616">
        <ele>36</ele>
        <time>2015-11-11T13:33:06.000Z</time>
      </trkpt>
      <trkpt lat="44.62822" lon="0.36589">
        <ele>37</ele>
        <time>2015-11-11T13:33:42.000Z</time>
      </trkpt>
      <trkpt lat="44.62864" lon="0.36581">
        <ele>40</ele>
        <time>2015-11-11T13:34:19.000Z</time>
      </trkpt>
      <trkpt lat="44.62895" lon="0.36576">
        <ele>31</ele>
        <time>2015-11-11T13:34:49.000Z</time>
      </trkpt>
      <trkpt lat="44.62933" lon="0.36558">
        <ele>25.999998</ele>
        <time>2015-11-11T13:35:19.000Z</time>
      </trkpt>
      <trkpt lat="44.62964" lon="0.36529">
        <ele>27</ele>
        <time>2015-11-11T13:35:53.000Z</time>
      </trkpt>
      <trkpt lat="44.62965" lon="0.36524">
        <ele>27</ele>
        <time>2015-11-11T13:35:59.000Z</time>
      </trkpt>
      <trkpt lat="44.62993" lon="0.36494">
        <ele>30</ele>
        <time>2015-11-11T13:36:32.000Z</time>
      </trkpt>
      <trkpt lat="44.63002" lon="0.36496">
        <ele>30</ele>
        <time>2015-11-11T13:36:43.000Z</time>
      </trkpt>
      <trkpt lat="44.63034" lon="0.36513">
        <ele>31</ele>
        <time>2015-11-11T13:37:14.000Z</time>
      </trkpt>
      <trkpt lat="44.63061" lon="0.36525">
        <ele>33</ele>
        <time>2015-11-11T13:37:55.000Z</time>
      </trkpt>
      <trkpt lat="44.6307" lon="0.36526">
        <ele>33</ele>
        <time>2015-11-11T13:38:39.000Z</time>
      </trkpt>
      <trkpt lat="44.63075" lon="0.36538">
        <ele>33</ele>
        <time>2015-11-11T13:42:16.000Z</time>
      </trkpt>
      <trkpt lat="44.63064" lon="0.36588">
        <ele>39</ele>
        <time>2015-11-11T13:42:46.000Z</time>
      </trkpt>
      <trkpt lat="44.63055" lon="0.36643">
        <ele>43.999996</ele>
        <time>2015-11-11T13:43:18.000Z</time>
      </trkpt>
      <trkpt lat="44.63044" lon="0.36694">
        <ele>47</ele>
        <time>2015-11-11T13:43:49.000Z</time>
      </trkpt>
      <trkpt lat="44.63025" lon="0.3674">
        <ele>50</ele>
        <time>2015-11-11T13:44:19.000Z</time>
      </trkpt>
      <trkpt lat="44.63005" lon="0.36784">
        <ele>50</ele>
        <time>2015-11-11T13:44:49.000Z</time>
      </trkpt>
      <trkpt lat="44.62982" lon="0.3683">
        <ele>51</ele>
        <time>2015-11-11T13:45:21.000Z</time>
      </trkpt>
      <trkpt lat="44.62957" lon="0.36883">
        <ele>53.000004</ele>
        <time>2015-11-11T13:45:53.000Z</time>
      </trkpt>
      <trkpt lat="44.62942" lon="0.36931">
        <ele>53.000004</ele>
        <time>2015-11-11T13:46:25.000Z</time>
      </trkpt>
      <trkpt lat="44.62932" lon="0.36966">
        <ele>51.999996</ele>
        <time>2015-11-11T13:46:55.000Z</time>
      </trkpt>
      <trkpt lat="44.62911" lon="0.37027">
        <ele>50</ele>
        <time>2015-11-11T13:47:26.000Z</time>
      </trkpt>
      <trkpt lat="44.62894" lon="0.37079">
        <ele>51.999996</ele>
        <time>2015-11-11T13:47:58.000Z</time>
      </trkpt>
      <trkpt lat="44.62877" lon="0.37131">
        <ele>51</ele>
        <time>2015-11-11T13:48:29.000Z</time>
      </trkpt>
      <trkpt lat="44.62862" lon="0.37183">
        <ele>49</ele>
        <time>2015-11-11T13:49:00.000Z</time>
      </trkpt>
      <trkpt lat="44.62842" lon="0.3724">
        <ele>49</ele>
        <time>2015-11-11T13:49:32.000Z</time>
      </trkpt>
      <trkpt lat="44.62829" lon="0.37283">
        <ele>49</ele>
        <time>2015-11-11T13:50:04.000Z</time>
      </trkpt>
      <trkpt lat="44.62808" lon="0.37342">
        <ele>51.999996</ele>
        <time>2015-11-11T13:50:36.000Z</time>
      </trkpt>
      <trkpt lat="44.62782" lon="0.37386">
        <ele>54</ele>
        <time>2015-11-11T13:51:08.000Z</time>
      </trkpt>
      <trkpt lat="44.62762" lon="0.37429">
        <ele>54</ele>
        <time>2015-11-11T13:51:39.000Z</time>
      </trkpt>
      <trkpt lat="44.62737" lon="0.3747">
        <ele>54</ele>
        <time>2015-11-11T13:52:11.000Z</time>
      </trkpt>
      <trkpt lat="44.6271" lon="0.37502">
        <ele>54</ele>
        <time>2015-11-11T13:52:42.000Z</time>
      </trkpt>
      <trkpt lat="44.62679" lon="0.3753">
        <ele>54</ele>
        <time>2015-11-11T13:53:12.000Z</time>
      </trkpt>
      <trkpt lat="44.62649" lon="0.37557">
        <ele>51.999996</ele>
        <time>2015-11-11T13:53:42.000Z</time>
      </trkpt>
      <trkpt lat="44.6264" lon="0.37567">
        <ele>51.999996</ele>
        <time>2015-11-11T13:53:49.000Z</time>
      </trkpt>
      <trkpt lat="44.62634" lon="0.37567">
        <ele>51</ele>
        <time>2015-11-11T13:53:52.000Z</time>
      </trkpt>
      <trkpt lat="44.62602" lon="0.37597">
        <ele>47</ele>
        <time>2015-11-11T13:54:24.000Z</time>
      </trkpt>
      <trkpt lat="44.62573" lon="0.37625">
        <ele>43.999996</ele>
        <time>2015-11-11T13:54:54.000Z</time>
      </trkpt>
      <trkpt lat="44.62571" lon="0.37627">
        <ele>43.999996</ele>
        <time>2015-11-11T13:54:58.000Z</time>
      </trkpt>
      <trkpt lat="44.62538" lon="0.37659">
        <ele>41</ele>
        <time>2015-11-11T13:55:28.000Z</time>
      </trkpt>
      <trkpt lat="44.62506" lon="0.3769">
        <ele>37</ele>
        <time>2015-11-11T13:55:59.000Z</time>
      </trkpt>
      <trkpt lat="44.62475" lon="0.37723">
        <ele>33</ele>
        <time>2015-11-11T13:56:30.000Z</time>
      </trkpt>
      <trkpt lat="44.62441" lon="0.37754">
        <ele>28</ele>
        <time>2015-11-11T13:57:02.000Z</time>
      </trkpt>
      <trkpt lat="44.62415" lon="0.37791">
        <ele>25.999998</ele>
        <time>2015-11-11T13:57:32.000Z</time>
      </trkpt>
      <trkpt lat="44.62396" lon="0.37836">
        <ele>25</ele>
        <time>2015-11-11T13:58:02.000Z</time>
      </trkpt>
      <trkpt lat="44.62375" lon="0.37884">
        <ele>21.999998</ele>
        <time>2015-11-11T13:58:34.000Z</time>
      </trkpt>
      <trkpt lat="44.62341" lon="0.37916">
        <ele>16</ele>
        <time>2015-11-11T13:59:05.000Z</time>
      </trkpt>
      <trkpt lat="44.62304" lon="0.3794">
        <ele>12</ele>
        <time>2015-11-11T13:59:38.000Z</time>
      </trkpt>
      <trkpt lat="44.6227" lon="0.37964">
        <ele>10</ele>
        <time>2015-11-11T14:00:09.000Z</time>
      </trkpt>
      <trkpt lat="44.62237" lon="0.37993">
        <ele>8</ele>
        <time>2015-11-11T14:00:40.000Z</time>
      </trkpt>
      <trkpt lat="44.62235" lon="0.37997">
        <ele>8</ele>
        <time>2015-11-11T14:00:43.000Z</time>
      </trkpt>
      <trkpt lat="44.62202" lon="0.38031">
        <ele>5</ele>
        <time>2015-11-11T14:01:13.000Z</time>
      </trkpt>
      <trkpt lat="44.62184" lon="0.38044">
        <ele>3</ele>
        <time>2015-11-11T14:01:33.000Z</time>
      </trkpt>
      <trkpt lat="44.62178" lon="0.38041">
        <ele>2</ele>
        <time>2015-11-11T14:05:37.000Z</time>
      </trkpt>
      <trkpt lat="44.62175" lon="0.3805">
        <ele>3</ele>
        <time>2015-11-11T14:05:43.000Z</time>
      </trkpt>
      <trkpt lat="44.62142" lon="0.38077">
        <ele>4</ele>
        <time>2015-11-11T14:06:15.000Z</time>
      </trkpt>
      <trkpt lat="44.62139" lon="0.38081">
        <ele>5</ele>
        <time>2015-11-11T14:06:18.000Z</time>
      </trkpt>
      <trkpt lat="44.62101" lon="0.38096">
        <ele>9</ele>
        <time>2015-11-11T14:06:50.000Z</time>
      </trkpt>
      <trkpt lat="44.62058" lon="0.38095">
        <ele>14</ele>
        <time>2015-11-11T14:07:22.000Z</time>
      </trkpt>
      <trkpt lat="44.62024" lon="0.38115">
        <ele>15</ele>
        <time>2015-11-11T14:07:53.000Z</time>
      </trkpt>
      <trkpt lat="44.61996" lon="0.38089">
        <ele>17</ele>
        <time>2015-11-11T14:08:23.000Z</time>
      </trkpt>
      <trkpt lat="44.61965" lon="0.38049">
        <ele>19</ele>
        <time>2015-11-11T14:08:53.000Z</time>
      </trkpt>
      <trkpt lat="44.6195" lon="0.38029">
        <ele>18</ele>
        <time>2015-11-11T14:09:21.000Z</time>
      </trkpt>
      <trkpt lat="44.61947" lon="0.38029">
        <ele>18</ele>
        <time>2015-11-11T14:09:25.000Z</time>
      </trkpt>
      <trkpt lat="44.61921" lon="0.38062">
        <ele>16</ele>
        <time>2015-11-11T14:09:56.000Z</time>
      </trkpt>
      <trkpt lat="44.6192" lon="0.38067">
        <ele>16</ele>
        <time>2015-11-11T14:10:00.000Z</time>
      </trkpt>
      <trkpt lat="44.61919" lon="0.38077">
        <ele>16</ele>
        <time>2015-11-11T14:10:05.000Z</time>
      </trkpt>
      <trkpt lat="44.6192" lon="0.38089">
        <ele>15</ele>
        <time>2015-11-11T14:10:15.000Z</time>
      </trkpt>
      <trkpt lat="44.61893" lon="0.38139">
        <ele>14</ele>
        <time>2015-11-11T14:10:47.000Z</time>
      </trkpt>
      <trkpt lat="44.61868" lon="0.38176">
        <ele>16</ele>
        <time>2015-11-11T14:11:18.000Z</time>
      </trkpt>
      <trkpt lat="44.61849" lon="0.38226">
        <ele>18</ele>
        <time>2015-11-11T14:11:50.000Z</time>
      </trkpt>
      <trkpt lat="44.61829" lon="0.38276">
        <ele>16</ele>
        <time>2015-11-11T14:12:21.000Z</time>
      </trkpt>
      <trkpt lat="44.61811" lon="0.38328">
        <ele>20</ele>
        <time>2015-11-11T14:12:52.000Z</time>
      </trkpt>
      <trkpt lat="44.618" lon="0.3838">
        <ele>21.999998</ele>
        <time>2015-11-11T14:13:23.000Z</time>
      </trkpt>
      <trkpt lat="44.618" lon="0.38435">
        <ele>20</ele>
        <time>2015-11-11T14:13:55.000Z</time>
      </trkpt>
      <trkpt lat="44.61799" lon="0.38492">
        <ele>19</ele>
        <time>2015-11-11T14:14:28.000Z</time>
      </trkpt>
      <trkpt lat="44.61788" lon="0.38542">
        <ele>18</ele>
        <time>2015-11-11T14:14:58.000Z</time>
      </trkpt>
      <trkpt lat="44.61757" lon="0.38584">
        <ele>19</ele>
        <time>2015-11-11T14:15:29.000Z</time>
      </trkpt>
      <trkpt lat="44.61723" lon="0.38617">
        <ele>21.999998</ele>
        <time>2015-11-11T14:16:02.000Z</time>
      </trkpt>
      <trkpt lat="44.61722" lon="0.38621">
        <ele>21.999998</ele>
        <time>2015-11-11T14:16:06.000Z</time>
      </trkpt>
      <trkpt lat="44.61724" lon="0.38628">
        <ele>23</ele>
        <time>2015-11-11T14:16:20.000Z</time>
      </trkpt>
      <trkpt lat="44.61744" lon="0.38645">
        <ele>24</ele>
        <time>2015-11-11T14:16:51.000Z</time>
      </trkpt>
      <trkpt lat="44.61773" lon="0.38676">
        <ele>24</ele>
        <time>2015-11-11T14:17:21.000Z</time>
      </trkpt>
      <trkpt lat="44.61808" lon="0.38703">
        <ele>25</ele>
        <time>2015-11-11T14:17:52.000Z</time>
      </trkpt>
      <trkpt lat="44.61842" lon="0.38728">
        <ele>25.999998</ele>
        <time>2015-11-11T14:18:24.000Z</time>
      </trkpt>
      <trkpt lat="44.61841" lon="0.38743">
        <ele>25.999998</ele>
        <time>2015-11-11T14:18:34.000Z</time>
      </trkpt>
      <trkpt lat="44.61832" lon="0.38777">
        <ele>25.999998</ele>
        <time>2015-11-11T14:18:55.000Z</time>
      </trkpt>
      <trkpt lat="44.61808" lon="0.38818">
        <ele>25.999998</ele>
        <time>2015-11-11T14:19:26.000Z</time>
      </trkpt>
      <trkpt lat="44.61783" lon="0.38858">
        <ele>28</ele>
        <time>2015-11-11T14:19:56.000Z</time>
      </trkpt>
      <trkpt lat="44.61759" lon="0.38895">
        <ele>32</ele>
        <time>2015-11-11T14:20:29.000Z</time>
      </trkpt>
      <trkpt lat="44.61735" lon="0.38936">
        <ele>35</ele>
        <time>2015-11-11T14:20:59.000Z</time>
      </trkpt>
      <trkpt lat="44.61718" lon="0.38984">
        <ele>37</ele>
        <time>2015-11-11T14:21:29.000Z</time>
      </trkpt>
      <trkpt lat="44.61695" lon="0.3903">
        <ele>39</ele>
        <time>2015-11-11T14:22:00.000Z</time>
      </trkpt>
      <trkpt lat="44.61673" lon="0.39073">
        <ele>42</ele>
        <time>2015-11-11T14:22:33.000Z</time>
      </trkpt>
      <trkpt lat="44.61646" lon="0.39117">
        <ele>43</ele>
        <time>2015-11-11T14:23:06.000Z</time>
      </trkpt>
      <trkpt lat="44.61622" lon="0.39156">
        <ele>43.999996</ele>
        <time>2015-11-11T14:23:39.000Z</time>
      </trkpt>
      <trkpt lat="44.61615" lon="0.39163">
        <ele>45.000004</ele>
        <time>2015-11-11T14:23:50.000Z</time>
      </trkpt>
      <trkpt lat="44.61609" lon="0.39164">
        <ele>45.000004</ele>
        <time>2015-11-11T14:27:10.000Z</time>
      </trkpt>
      <trkpt lat="44.61578" lon="0.39138">
        <ele>46</ele>
        <time>2015-11-11T14:27:41.000Z</time>
      </trkpt>
      <trkpt lat="44.61545" lon="0.39118">
        <ele>47</ele>
        <time>2015-11-11T14:28:12.000Z</time>
      </trkpt>
      <trkpt lat="44.61514" lon="0.39087">
        <ele>47</ele>
        <time>2015-11-11T14:28:42.000Z</time>
      </trkpt>
      <trkpt lat="44.61506" lon="0.39079">
        <ele>47</ele>
        <time>2015-11-11T14:28:49.000Z</time>
      </trkpt>
      <trkpt lat="44.61502" lon="0.39062">
        <ele>47</ele>
        <time>2015-11-11T14:29:00.000Z</time>
      </trkpt>
      <trkpt lat="44.61504" lon="0.39051">
        <ele>48</ele>
        <time>2015-11-11T14:29:07.000Z</time>
      </trkpt>
      <trkpt lat="44.61516" lon="0.39006">
        <ele>49</ele>
        <time>2015-11-11T14:29:39.000Z</time>
      </trkpt>
      <trkpt lat="44.61522" lon="0.38966">
        <ele>46</ele>
        <time>2015-11-11T14:30:14.000Z</time>
      </trkpt>
      <trkpt lat="44.6154" lon="0.38916">
        <ele>43.999996</ele>
        <time>2015-11-11T14:30:46.000Z</time>
      </trkpt>
      <trkpt lat="44.61552" lon="0.38856">
        <ele>43.999996</ele>
        <time>2015-11-11T14:31:15.000Z</time>
      </trkpt>
      <trkpt lat="44.61544" lon="0.38833">
        <ele>43</ele>
        <time>2015-11-11T14:31:35.000Z</time>
      </trkpt>
      <trkpt lat="44.61514" lon="0.3881">
        <ele>42</ele>
        <time>2015-11-11T14:32:05.000Z</time>
      </trkpt>
      <trkpt lat="44.61475" lon="0.3879">
        <ele>40</ele>
        <time>2015-11-11T14:32:35.000Z</time>
      </trkpt>
      <trkpt lat="44.61459" lon="0.38777">
        <ele>38</ele>
        <time>2015-11-11T14:32:48.000Z</time>
      </trkpt>
      <trkpt lat="44.61453" lon="0.38761">
        <ele>36</ele>
        <time>2015-11-11T14:33:12.000Z</time>
      </trkpt>
      <trkpt lat="44.61419" lon="0.38735">
        <ele>33</ele>
        <time>2015-11-11T14:33:43.000Z</time>
      </trkpt>
      <trkpt lat="44.61382" lon="0.38716">
        <ele>29</ele>
        <time>2015-11-11T14:34:15.000Z</time>
      </trkpt>
      <trkpt lat="44.61342" lon="0.38694">
        <ele>19</ele>
        <time>2015-11-11T14:34:47.000Z</time>
      </trkpt>
      <trkpt lat="44.61303" lon="0.38678">
        <ele>12.999999</ele>
        <time>2015-11-11T14:35:17.000Z</time>
      </trkpt>
      <trkpt lat="44.61267" lon="0.38672">
        <ele>10</ele>
        <time>2015-11-11T14:35:50.000Z</time>
      </trkpt>
      <trkpt lat="44.6123" lon="0.38687">
        <ele>8</ele>
        <time>2015-11-11T14:36:20.000Z</time>
      </trkpt>
      <trkpt lat="44.61195" lon="0.38717">
        <ele>8</ele>
        <time>2015-11-11T14:36:52.000Z</time>
      </trkpt>
      <trkpt lat="44.61162" lon="0.38739">
        <ele>10</ele>
        <time>2015-11-11T14:37:23.000Z</time>
      </trkpt>
      <trkpt lat="44.61145" lon="0.38746">
        <ele>10.999999</ele>
        <time>2015-11-11T14:37:35.000Z</time>
      </trkpt>
      <trkpt lat="44.61109" lon="0.38747">
        <ele>14</ele>
        <time>2015-11-11T14:38:06.000Z</time>
      </trkpt>
      <trkpt lat="44.61068" lon="0.38756">
        <ele>18</ele>
        <time>2015-11-11T14:38:37.000Z</time>
      </trkpt>
      <trkpt lat="44.6104" lon="0.38757">
        <ele>20</ele>
        <time>2015-11-11T14:39:04.000Z</time>
      </trkpt>
      <trkpt lat="44.61038" lon="0.38748">
        <ele>21</ele>
        <time>2015-11-11T14:39:13.000Z</time>
      </trkpt>
      <trkpt lat="44.61038" lon="0.38743">
        <ele>21</ele>
        <time>2015-11-11T14:39:18.000Z</time>
      </trkpt>
      <trkpt lat="44.61033" lon="0.38708">
        <ele>24</ele>
        <time>2015-11-11T14:39:50.000Z</time>
      </trkpt>
      <trkpt lat="44.61033" lon="0.38705">
        <ele>24</ele>
        <time>2015-11-11T14:39:54.000Z</time>
      </trkpt>
      <trkpt lat="44.61028" lon="0.38662">
        <ele>24</ele>
        <time>2015-11-11T14:40:24.000Z</time>
      </trkpt>
      <trkpt lat="44.61018" lon="0.38606">
        <ele>23</ele>
        <time>2015-11-11T14:40:56.000Z</time>
      </trkpt>
      <trkpt lat="44.61007" lon="0.3856">
        <ele>21</ele>
        <time>2015-11-11T14:41:26.000Z</time>
      </trkpt>
      <trkpt lat="44.60998" lon="0.38505">
        <ele>19</ele>
        <time>2015-11-11T14:41:58.000Z</time>
      </trkpt>
      <trkpt lat="44.61" lon="0.38457">
        <ele>19</ele>
        <time>2015-11-11T14:42:28.000Z</time>
      </trkpt>
      <trkpt lat="44.61007" lon="0.38409">
        <ele>18</ele>
        <time>2015-11-11T14:42:58.000Z</time>
      </trkpt>
      <trkpt lat="44.6102" lon="0.38357">
        <ele>17</ele>
        <time>2015-11-11T14:43:29.000Z</time>
      </trkpt>
      <trkpt lat="44.61036" lon="0.38314">
        <ele>15</ele>
        <time>2015-11-11T14:43:59.000Z</time>
      </trkpt>
      <trkpt lat="44.61055" lon="0.38261">
        <ele>14</ele>
        <time>2015-11-11T14:44:30.000Z</time>
      </trkpt>
      <trkpt lat="44.61057" lon="0.38253">
        <ele>14</ele>
        <time>2015-11-11T14:44:35.000Z</time>
      </trkpt>
      <trkpt lat="44.61056" lon="0.38245">
        <ele>14</ele>
        <time>2015-11-11T14:44:39.000Z</time>
      </trkpt>
      <trkpt lat="44.61056" lon="0.38191">
        <ele>12.999999</ele>
        <time>2015-11-11T14:45:09.000Z</time>
      </trkpt>
      <trkpt lat="44.61057" lon="0.38174">
        <ele>12</ele>
        <time>2015-11-11T14:45:19.000Z</time>
      </trkpt>
      <trkpt lat="44.61058" lon="0.38165">
        <ele>12</ele>
        <time>2015-11-11T14:45:29.000Z</time>
      </trkpt>
      <trkpt lat="44.61063" lon="0.38153">
        <ele>10.999999</ele>
        <time>2015-11-11T14:49:10.000Z</time>
      </trkpt>
      <trkpt lat="44.61094" lon="0.38134">
        <ele>12</ele>
        <time>2015-11-11T14:49:40.000Z</time>
      </trkpt>
      <trkpt lat="44.61132" lon="0.38097">
        <ele>10</ele>
        <time>2015-11-11T14:50:12.000Z</time>
      </trkpt>
      <trkpt lat="44.61157" lon="0.38054">
        <ele>6</ele>
        <time>2015-11-11T14:50:43.000Z</time>
      </trkpt>
      <trkpt lat="44.6118" lon="0.38018">
        <ele>5</ele>
        <time>2015-11-11T14:51:14.000Z</time>
      </trkpt>
      <trkpt lat="44.61181" lon="0.38014">
        <ele>5</ele>
        <time>2015-11-11T14:51:23.000Z</time>
      </trkpt>
      <trkpt lat="44.61201" lon="0.37974">
        <ele>5</ele>
        <time>2015-11-11T14:51:53.000Z</time>
      </trkpt>
      <trkpt lat="44.61204" lon="0.37971">
        <ele>5</ele>
        <time>2015-11-11T14:51:56.000Z</time>
      </trkpt>
      <trkpt lat="44.61219" lon="0.37922">
        <ele>6</ele>
        <time>2015-11-11T14:52:28.000Z</time>
      </trkpt>
      <trkpt lat="44.61222" lon="0.37875">
        <ele>5</ele>
        <time>2015-11-11T14:52:58.000Z</time>
      </trkpt>
      <trkpt lat="44.61221" lon="0.37855">
        <ele>6</ele>
        <time>2015-11-11T14:53:06.000Z</time>
      </trkpt>
      <trkpt lat="44.61194" lon="0.37811">
        <ele>4</ele>
        <time>2015-11-11T14:53:37.000Z</time>
      </trkpt>
      <trkpt lat="44.6119" lon="0.37806">
        <ele>4</ele>
        <time>2015-11-11T14:53:41.000Z</time>
      </trkpt>
      <trkpt lat="44.61156" lon="0.37777">
        <ele>6</ele>
        <time>2015-11-11T14:54:12.000Z</time>
      </trkpt>
      <trkpt lat="44.61129" lon="0.37736">
        <ele>6</ele>
        <time>2015-11-11T14:54:42.000Z</time>
      </trkpt>
      <trkpt lat="44.61132" lon="0.37716">
        <ele>8</ele>
        <time>2015-11-11T14:54:54.000Z</time>
      </trkpt>
      <trkpt lat="44.61142" lon="0.3767">
        <ele>12</ele>
        <time>2015-11-11T14:55:25.000Z</time>
      </trkpt>
      <trkpt lat="44.61156" lon="0.37618">
        <ele>15</ele>
        <time>2015-11-11T14:55:55.000Z</time>
      </trkpt>
      <trkpt lat="44.61169" lon="0.37563">
        <ele>15</ele>
        <time>2015-11-11T14:56:26.000Z</time>
      </trkpt>
      <trkpt lat="44.61168" lon="0.37507">
        <ele>17</ele>
        <time>2015-11-11T14:56:58.000Z</time>
      </trkpt>
      <trkpt lat="44.61165" lon="0.37451">
        <ele>19</ele>
        <time>2015-11-11T14:57:29.000Z</time>
      </trkpt>
      <trkpt lat="44.6117" lon="0.37397">
        <ele>18</ele>
        <time>2015-11-11T14:58:00.000Z</time>
      </trkpt>
      <trkpt lat="44.6118" lon="0.37344">
        <ele>16</ele>
        <time>2015-11-11T14:58:31.000Z</time>
      </trkpt>
      <trkpt lat="44.61182" lon="0.37323">
        <ele>17</ele>
        <time>2015-11-11T14:59:18.000Z</time>
      </trkpt>
      <trkpt lat="44.61177" lon="0.37313">
        <ele>18</ele>
        <time>2015-11-11T14:59:28.000Z</time>
      </trkpt>
      <trkpt lat="44.61178" lon="0.37303">
        <ele>19</ele>
        <time>2015-11-11T14:59:36.000Z</time>
      </trkpt>
      <trkpt lat="44.61196" lon="0.37261">
        <ele>20</ele>
        <time>2015-11-11T15:00:08.000Z</time>
      </trkpt>
      <trkpt lat="44.61211" lon="0.37215">
        <ele>18</ele>
        <time>2015-11-11T15:00:39.000Z</time>
      </trkpt>
      <trkpt lat="44.61211" lon="0.37199">
        <ele>17</ele>
        <time>2015-11-11T15:00:49.000Z</time>
      </trkpt>
      <trkpt lat="44.61216" lon="0.37185">
        <ele>16</ele>
        <time>2015-11-11T15:01:00.000Z</time>
      </trkpt>
      <trkpt lat="44.61214" lon="0.37174">
        <ele>14</ele>
        <time>2015-11-11T15:01:08.000Z</time>
      </trkpt>
    </trkseg>
  </trk>
</gpx>